This site, now in its 15th season, is a labour of love and fun from one of Ottawa's most avid time trialists and number crunchers. It adheres to and is permitted by the laws of Canada, promotes the objectives of every bicycle club whose results are shown, and is donated free of charge by myself for your enjoyment and usage. If you would like results from series you ride in to be shown here, give me (celia@drmath.ca) a shout!


Index Page
ATT OTT WTT AATT CFCTT VVVTT
Help resultformat:
Case-sensitive

OBC Open TT Series - 1993-Sep-02 - 15km (Rockliffe Pkwy) (EvtFactor = 0.9629)

Weather (18:00): Cloudy. Temp.: 21.7C, Humidity: 57%, DewPoint: 12.9C, Wind: E 13km/h, Pressure: 100.10kPa, Visibility: 40.2km.
Weather (19:00): Cloudy. Temp.: 21.3C, Humidity: 59%, DewPoint: 13.0C, Wind: ESE 17km/h, Pressure: 100.04kPa, Visibility: 40.2km.
Weather (20:00): Cloudy. Temp.: 20.6C, Humidity: 61%, DewPoint: 12.9C, Wind: ESE 15km/h, Pressure: 99.94kPa, Visibility: 32.2km.

Send photos with description (when/where/what) of yourself on or off of bike to celia@drmath.ca

 
 

BESTS?
 
1 Guenette, Jean-Yves OBC 20:15 44.444 1/54 OVAM 1/10 1.0099
2 Hunter, Philip --- 20:17 44.371 2/54 OSEM 1/20 1.1045
3 Aller, Brian OBC 20:44 43.408 3/54 OVAM 2/10 1.0024
Burge, Craig  --- 20:44 43.408 3/54 OSEM 2/20 0.9270
5 Simpson, Bob OBC 20:45 43.373 5/54 OVBM 1/6 0.9386
6 Parkin, Brian --- 20:56 42.994 6/54 OVAM 3/10 0.9438
7 Morvan, Jacques  OBC 21:15 42.353 7/54 OVBM 2/6 1.0070
8 Morewood, Arthur OBC 21:18 42.254 8/54 OVBM 3/6 0.9516
9 Fairhead, Denis OBC 21:20 42.188 9/54 OVAM 4/10 1.0308
10 Fraser, Ian OBC 21:21 42.155 10/54 OSEM 3/20 0.8788
11 MacDonald, Ryan OBC 21:24 42.056 11/54 OSEM 4/20 0.9608
12 Martignago, Mike OBC 21:27 41.958 12/54 OSEM 5/20 0.9815
13 Moerman, Bram  OBC 21:35 41.699 13/54 OVBM 4/6 0.9410
14 St-Amour, Pierre OBC 21:36 41.667 14/54 OVAM 5/10 0.9212
15 Leach, Mike --- 21:43 41.443 15/54 OSEM 6/20 0.9502
16 Reinisch, Stephen OBC 21:52 41.159 16/54 OSEM 7/20 0.9440
17 Buffa, Alex  OBC 21:55 41.065 17/54 OSEM 8/20 0.9332
18 Mahoney, Keith OBC 22:13 40.510 18/54 OSEM 9/20 0.9799
19 Matthews, Paul --- 22:19 40.329 19/54 OVAM 6/10  
20 Schuck, Peter  OBC 22:20 40.299 20/54 OVAM 7/10 1.1651
21 Heffler, Paul OBC 22:23 40.208 21/54 OSEM 10/20 0.9495
22 Pazdzior, Ellen  OBC 22:26 40.119 22/54 OVAF 1/2 0.9823
23 Callahan, Luc OBC 22:33 39.911 23/54 OSEM 11/20 1.0291
24 Franks, Greg OBC 22:38 39.764 24/54 OSEM 12/20 0.9912
25 Hiscocks, Roger --- 22:46 39.531 25/54 OVBM 5/6 1.0765
Pritlove, James OBC 22:46 39.531 25/54 OSEM 13/20 0.9782
27 Romkey, Gary OBC 22:55 39.273 27/54 OVBM 6/6 1.0220
28 Montpetit, Stephane OBC 22:57 39.216 28/54 OSEM 14/20 0.9257
29 Ménard, Monique OBC 23:00 39.130 29/54 OSEF 1/3 0.9913
30 Boileau, Greg OBC 23:01 39.102 30/54 OJUM 1/3 1.0329
31 Hull, Alec OBC 23:03 39.046 31/54 OSEM 15/20 1.0285
32 Shadeed, Charles OBC 23:04 39.017 32/54 OVAM 8/10 1.0196
33 Bonnilla, Pat --- 23:11 38.821 33/54 OSEM 16/20  
34 Austen, Ian  OBC 23:15 38.710 34/54 OVAM 9/10 0.9702
35 Boissonneault, France OBC 23:26 38.407 35/54 OSEF 2/3 1.0856
36 Raoux, Daren --- 23:40 38.028 36/54 OSEM 17/20  
37 Cossette, Mari-Josée --- 23:48 37.815 37/54 XXF 1/1 0.9403
38 Gilchrist, Ryan  OBC 24:15 37.113 38/54 OSEM 18/20 0.9354
39 Aller, Mo OBC 24:22 36.936 39/54 OVCM 1/3 1.0887
40 Maly, Peter --- 24:36 36.585 40/54 OSEM 19/20 1.0454
41 Ghadban, Zeus --- 24:50 36.242 41/54 OSEM 20/20 1.0429
42 Ajersch, Mary  OBC 25:04 35.904 42/54 OVBF 1/3 0.9606
43 Smart, Eric OBC 25:08 35.809 43/54 OVCM 2/3 0.9941
44 James, Peter OBC 25:20 35.526 44/54 OVAM 10/10 1.0400
45 McInnis, Celia  OBC 25:37 35.133 45/54 OVAF 2/2 0.8946
46 Soucy, Dominic OBC 25:43 34.997 46/54 OJUM 2/3 0.8351
S 47 Cumming, Megan OBC 26:36 33.835 47/54 OCAF 1/1  
48 Fortey, Brian OBC 26:57 33.395 48/54 OJUM 3/3 0.9724
Y 49 Miller, Jim --- 27:04 33.251 49/54 VAM 1/1  
50 LaVictoire, Eric --- 27:21 32.907 50/54 U18M 1/1 1.0502
51 Oligny, Diane OBC 27:25 32.827 51/54 OSEF 3/3 1.0000
52 Gerber, Rosmarie OBC 27:29 32.747 52/54 OVBF 2/3 0.9359
53 Cumming, Peggy OBC 29:15 30.769 53/54 OVBF 3/3  
54 Watson, Ronald Doc --- 29:59 30.017 54/54 OVCM 3/3  
 
Average Speed of all of the above 54 finishes (810km in 21:05:12):38.413
>>>Average of the Average Speeds for these 54 finishes38.755<<<
 

The number of data records shown above is 54
The server processing of your query took: 1 wallclock secs ( 0.10 usr + 0.01 sys = 0.11 CPU)

Thanks to our Helpers: Terry Martineau, Don Tamborine, Gunther Krausbar.

     


Apr 9 (Good Friday) Apr 15 Apr 22 (cancelled) Apr 27 Apr 29
May 4 (10km) May 6 May 11 May 11 (10km) May 13 (22km) May 16 (40km) May 18 May 18 (10km) May 20 May 25 May 25 (10km) May 27 (38km) May 30 (40km)
Jun 1 Jun 3 Jun 8 Jun 10 (22km) Jun 15 Jun 17 Jun 22 Jun 22 Jun 24 (38km) Jun 25 Jun 27 (40km/80km) Jun 29 Jun 29 Jun 30
Jul 6 Jul 6 Jul 8 Jul 13 Jul 13 Jul 15 (38km) Jul 20 Jul 20 Jul 22 Jul 25 (80km) Jul 27 Jul 29 (22km)
Aug 3 Aug 3 Aug 5 Aug 7 (38km) Aug 10 Aug 10 Aug 12 Aug 15 (40km/80km) Aug 17 Aug 19 Aug 21 (22km) Aug 24 Aug 24 Aug 26 Aug 29 (40km) Aug 31 (Invitational)
  Sep 2  
Sep 7 Sep 9 Sep 14 Sep 16 Sep 25 (40km)

OTT Rankings
Best       Best by category
WTT Rankings for OBC Members
5 Best 15km     5 Best 15km by category
OBC Member Best Three 15km Rankings
Overall     by category
OBC BAR Ranking
Overall     by category     Rider "Consistency-Graph"
ABC BAR Ranking
Overall     by category     Rider "Consistency-Graph"
Other years
TT Calculator All TT People All TT events
ABC Home VVV Home
CKAP GOLD MEDAL
Other Links

Please send your comments and suggestions to: Celia McInnis
Copyright © 1998-2011 Celia McInnis. All rights reserved. Links are welcomed.